Portada
METAR-TAF:

METAR-TAF

Aeroports :

Cebú, Filipines

latitud: 10-18-48N, longitud: 123-58-58E, altitud: 23 m

Observació

L'informe es va fer fa 17 minuts, a les 18:00 UTC
Vent 2 kt del Sud-Oest
Temperatura 27°C
Humitat 79%
Pressió 1012 hPa
Visibilitat 10 km o més
Escasses núvols a una alçada de 2000 ft

METAR: RPVM 211800Z 22002KT 9999 FEW020 27/23 Q1012 RMK A2988

Hora: 02:17 (18:17 UTC)

Pronòstic

L'informe es va fer fa 1 hora i 17 minuts, a les 17:00 UTC
Pronòstic vàlid del 21 a les 18 UTC al 22 a les 24 UTC
Vent 6 kt del Oest/Sud-Oest
Visibilitat 10 km o més
Escasses núvols a una alçada de 2000 ft
Núvols disperses a una alçada de 30000 ft
Temporalment
l' 21 a les 18 UTC al 21 a les 24 UTC
Vent 8 kt del Oest
Escasses núvols a una alçada de 2000 ft
Cel ennuvolat a una alçada de 30000 ft
Temporalment
l' 22 a les 00 UTC al 22 a les 06 UTC
Vent 4 kt del Oest/Sud-Oest

TAF: RPVM 211700Z 2118/2224 25006KT 9999 FEW020 SCT300 TEMPO 2118/2124 27008KT FEW020 BKN300 TEMPO 2200/2206 24004KT

Observacions i pronòstics meteorològics de més de 4000 aeroports (METAR i TAF).

Les estacions disponibles són els punts grocs i vermells al mapa.

Posi el ratolí al punt desitjat per veure el nom de l'estació.

Feu clic per veure les observacions i els pronòstics meteorològics.

Per canviar el mapa: feu clic els botons verds amb una creu de color negre per apropar; al botó verd amb un guió per allunyar la imatge; o en les fletxes verdes per a mapes adjacents.


METAR-TAF: